Darstellungsparameter: Aktuell verwendete Einstellungen:
Skalierung der Graphiken ... ?
xyx+y,   Skalierungsfaktor:      Skalierung: Modus: x, Faktor: 1
Darstellungszeitraum ... ?
Vom - - bis: - -   Zeitraum: 13.05.2009 - 12.05.2010
Min/Max/Avg-Anzeige ... ?
Zeige MMA aktuell
Zeige MMA Monat
Zeige MMA alles
Zeige --A aktuell
Zeige --A Monat
Zeige --A alles
Keine MMA-Anzeige
MMA:
Average (ber die Originaldaten)
MMA-Basis: 11.04.2020 - 13.05.2020
Quicknavigation für Darstellung... ?
Tage:      1T, 2T, 3T, 5T -1T -2T -3T -5T +1T +2T +3T +5T
Wochen: 1W, 2W, 3W -1W -2W -3W +1W +2W +3W
Monate: 1M, 3M, 6M -1M -3M -6M +1M +3M +6M
Jahre:    1J, 3J, 5J, 10J -1J -3J -5J -10J +1J +3J +5J +10J
Nutze für die Darstellung ... ?
Originaldaten oder ...
Mittelwerte Minima Maxima auf...
Stundenbasis Tagesbasis Wochenbasis
Monatsbasis Jahresbasis      Datenbasis: Mittelwerte auf Tagesbasis
Darstellen als:
Statistik (Auto) Statistik J:M      Darstellung:
Zur Graphik,    zurück zur Übersicht aller Sensoren.
 
Tabellarische Datenbersicht: ?
 
Sensor: Nr:Datum:Temp:Abs-Feuchte:Windchill:Wind:
Aussen-T/F 1 13-05-2009 00:00:00 15.51771 C 8.96 g/m*3 15.52 C 0 km/h
2 14-05-2009 00:00:00 16.00104 C 9.44 g/m*3 16 C 0 km/h
3 15-05-2009 00:00:00 15.12255 C 10.34 g/m*3 15.12 C 0 km/h
4 16-05-2009 00:00:00 13.80333 C 7.38 g/m*3 13.8 C 0 km/h
5 17-05-2009 00:00:00 17.02083 C 7.92 g/m*3 17.02 C 0 km/h
6 18-05-2009 00:00:00 16.95083 C 6.63 g/m*3 16.95 C 0 km/h
7 19-05-2009 00:00:00 16.49333 C 7.85 g/m*3 16.49 C 0 km/h
8 20-05-2009 00:00:00 18.70167 C 9.55 g/m*3 18.7 C 0 km/h
9 21-05-2009 00:00:00 19.21167 C 10.72 g/m*3 19.21 C 0 km/h
10 22-05-2009 00:00:00 17.97917 C 7.45 g/m*3 17.98 C 0 km/h
11 23-05-2009 00:00:00 18.72083 C 7.4 g/m*3 18.72 C 0 km/h
12 24-05-2009 00:00:00 22.53417 C 9.1 g/m*3 22.53 C 0 km/h
13 25-05-2009 00:00:00 23.49833 C 10.6 g/m*3 23.5 C 0 km/h
14 26-05-2009 00:00:00 19.86583 C 9.97 g/m*3 19.87 C 0 km/h
15 27-05-2009 00:00:00 14.4425 C 6.18 g/m*3 14.44 C 0 km/h
16 28-05-2009 00:00:00 15.5325 C 8.21 g/m*3 15.53 C 0 km/h
17 29-05-2009 00:00:00 17.81765 C 6.76 g/m*3 17.82 C 0 km/h
18 30-05-2009 00:00:00 18.43417 C 6.45 g/m*3 18.43 C 0 km/h
19 31-05-2009 00:00:00 20.3075 C 7.55 g/m*3 20.31 C 0 km/h
20 01-06-2009 00:00:00 19.42541 C 9.1 g/m*3 19.43 C 0 km/h
21 02-06-2009 00:00:00 19.91917 C 8.16 g/m*3 19.92 C 0 km/h
22 03-06-2009 00:00:00 16.3775 C 5.31 g/m*3 16.38 C 0 km/h
23 04-06-2009 00:00:00 13.435 C 4.59 g/m*3 13.44 C 0 km/h
24 05-06-2009 00:00:00 13.4075 C 5 g/m*3 13.41 C 0 km/h
25 06-06-2009 00:00:00 9.18333 C 7.41 g/m*3 9.18 C 0 km/h
Sensor: Nr:Datum:Temp:Abs-Feuchte:Windchill:Wind:
Aussen-T/F 26 07-06-2009 00:00:00 13.71083 C 8.43 g/m*3 13.71 C 0 km/h
27 08-06-2009 00:00:00 16.58667 C 7.38 g/m*3 16.59 C 0 km/h
28 09-06-2009 00:00:00 17.9275 C 9.37 g/m*3 17.93 C 0 km/h
29 10-06-2009 00:00:00 17.24454 C 8.99 g/m*3 17.24 C 0 km/h
30 11-06-2009 00:00:00 14.60417 C 9.26 g/m*3 14.6 C 0 km/h
31 12-06-2009 00:00:00 15.915 C 7.28 g/m*3 15.92 C 0 km/h
32 13-06-2009 00:00:00 18.29417 C 7.64 g/m*3 18.29 C 0 km/h
33 14-06-2009 00:00:00 20.3875 C 10.19 g/m*3 20.39 C 0 km/h
34 15-06-2009 00:00:00 16.76083 C 12.71 g/m*3 16.76 C 0 km/h
35 16-06-2009 00:00:00 16.58083 C 9.69 g/m*3 16.58 C 0 km/h
36 17-06-2009 00:00:00 19.89 C 9.38 g/m*3 19.89 C 0 km/h
37 18-06-2009 00:00:00 19.45417 C 10.3 g/m*3 19.45 C 0 km/h
38 19-06-2009 00:00:00 18.45583 C 7.96 g/m*3 18.46 C 0 km/h
39 20-06-2009 00:00:00 13.84583 C 7.89 g/m*3 13.85 C 0 km/h
40 21-06-2009 00:00:00 13.40167 C 8.61 g/m*3 13.4 C 0 km/h
41 22-06-2009 00:00:00 15.23697 C 7.62 g/m*3 15.24 C 0 km/h
42 23-06-2009 00:00:00 18.58583 C 7.92 g/m*3 18.59 C 0 km/h
43 24-06-2009 00:00:00 22.29167 C 7.85 g/m*3 22.29 C 0 km/h
44 25-06-2009 00:00:00 24.10583 C 9.67 g/m*3 24.11 C 0 km/h
45 26-06-2009 00:00:00 24.31083 C 10.7 g/m*3 24.31 C 0 km/h
46 27-06-2009 00:00:00 22.1625 C 12.54 g/m*3 22.16 C 0 km/h
47 28-06-2009 00:00:00 25.04417 C 11.78 g/m*3 25.04 C 0 km/h
48 29-06-2009 00:00:00 24.71583 C 12 g/m*3 24.72 C 0 km/h
49 30-06-2009 00:00:00 22.55083 C 13.98 g/m*3 22.55 C 0 km/h
50 01-07-2009 00:00:00 23.6175 C 13.73 g/m*3 23.62 C 0 km/h
Sensor: Nr:Datum:Temp:Abs-Feuchte:Windchill:Wind:
Aussen-T/F 51 02-07-2009 00:00:00 25.95917 C 12.87 g/m*3 25.96 C 0 km/h
52 03-07-2009 00:00:00 23.36083 C 13.72 g/m*3 23.36 C 0 km/h
53 04-07-2009 00:00:00 24.17479 C 11.83 g/m*3 24.17 C 0 km/h
54 05-07-2009 00:00:00 23.89917 C 11.07 g/m*3 23.9 C 0 km/h
55 06-07-2009 00:00:00 21.82333 C 11.98 g/m*3 21.82 C 0 km/h
56 07-07-2009 00:00:00 18.7625 C 10.11 g/m*3 18.76 C 0 km/h
57 08-07-2009 00:00:00 16.39 C 9.61 g/m*3 16.39 C 0 km/h
58 09-07-2009 00:00:00 16.38583 C 8.58 g/m*3 16.39 C 0 km/h
59 10-07-2009 00:00:00 15.17083 C 7.78 g/m*3 15.17 C 0 km/h
60 11-07-2009 00:00:00 17.55667 C 8.2 g/m*3 17.56 C 0 km/h
61 12-07-2009 00:00:00 19.3525 C 10.57 g/m*3 19.35 C 0 km/h
62 13-07-2009 00:00:00 21.76917 C 12.23 g/m*3 21.77 C 0 km/h
63 14-07-2009 00:00:00 23.4 C 13.46 g/m*3 23.4 C 0 km/h
64 15-07-2009 00:00:00 24.0475 C 10.2 g/m*3 24.05 C 0 km/h
65 16-07-2009 00:00:00 23.37479 C 9.98 g/m*3 23.37 C 0 km/h
66 17-07-2009 00:00:00 20.90917 C 9.78 g/m*3 20.91 C 0 km/h
67 18-07-2009 00:00:00 17.575 C 8.46 g/m*3 17.58 C 0 km/h
68 19-07-2009 00:00:00 17.92167 C 8.71 g/m*3 17.92 C 0 km/h
69 20-07-2009 00:00:00 19.82583 C 7.87 g/m*3 19.83 C 0 km/h
70 21-07-2009 00:00:00 23.22833 C 11.03 g/m*3 23.23 C 0 km/h
71 22-07-2009 00:00:00 25.10583 C 12 g/m*3 25.11 C 0 km/h
72 23-07-2009 00:00:00 22.65417 C 12.31 g/m*3 22.65 C 0 km/h
73 24-07-2009 00:00:00 20.33167 C 9.89 g/m*3 20.33 C 0 km/h
74 25-07-2009 00:00:00 18.03083 C 9.21 g/m*3 18.03 C 0 km/h
75 26-07-2009 00:00:00 19.94833 C 9.75 g/m*3 19.95 C 0 km/h
Sensor: Nr:Datum:Temp:Abs-Feuchte:Windchill:Wind:
Aussen-T/F 76 27-07-2009 00:00:00 20.60667 C 10.4 g/m*3 20.61 C 0 km/h
77 28-07-2009 00:00:00 20.41513 C 8.48 g/m*3 20.42 C 0 km/h
78 29-07-2009 00:00:00 21.77833 C 9.2 g/m*3 21.78 C 0 km/h
79 30-07-2009 00:00:00 21.10583 C 8.72 g/m*3 21.11 C 0 km/h
80 31-07-2009 00:00:00 20.32583 C 7.51 g/m*3 20.33 C 0 km/h
81 01-08-2009 00:00:00 22.455 C 8.67 g/m*3 22.46 C 0 km/h
82 02-08-2009 00:00:00 20.47167 C 10.91 g/m*3 20.47 C 0 km/h
83 03-08-2009 00:00:00 19.3075 C 9.46 g/m*3 19.31 C 0 km/h
84 04-08-2009 00:00:00 20.48917 C 8.95 g/m*3 20.49 C 0 km/h
85 05-08-2009 00:00:00 22.0275 C 8.17 g/m*3 22.03 C 0 km/h
86 06-08-2009 00:00:00 24.19667 C 9.51 g/m*3 24.2 C 0 km/h
87 07-08-2009 00:00:00 25.2075 C 10.12 g/m*3 25.21 C 0 km/h
88 08-08-2009 00:00:00 21.22583 C 12.28 g/m*3 21.23 C 0 km/h
89 09-08-2009 00:00:00 22.82101 C 12.15 g/m*3 22.82 C 0 km/h
90 10-08-2009 00:00:00 21.7025 C 11.79 g/m*3 21.7 C 0 km/h
91 11-08-2009 00:00:00 20.44 C 11.61 g/m*3 20.44 C 0 km/h
92 12-08-2009 00:00:00 20.9725 C 11.23 g/m*3 20.97 C 0 km/h
93 13-08-2009 00:00:00 18.55917 C 12.82 g/m*3 18.56 C 0 km/h
94 14-08-2009 00:00:00 19.44083 C 10.85 g/m*3 19.44 C 0 km/h
95 15-08-2009 00:00:00 21.37917 C 10.5 g/m*3 21.38 C 0 km/h
96 16-08-2009 00:00:00 23.84583 C 11 g/m*3 23.85 C 0 km/h
97 17-08-2009 00:00:00 23.615 C 11.27 g/m*3 23.62 C 0 km/h
98 18-08-2009 00:00:00 22.105 C 9.45 g/m*3 22.11 C 0 km/h
99 19-08-2009 00:00:00 23.76 C 10.14 g/m*3 23.76 C 0 km/h
100 20-08-2009 00:00:00 26.03167 C 11.39 g/m*3 26.03 C 0 km/h
Sensor: Nr:Datum:Temp:Abs-Feuchte:Windchill:Wind:
Aussen-T/F 101 21-08-2009 00:00:00 20.32185 C 10.69 g/m*3 20.32 C 0 km/h
102 22-08-2009 00:00:00 19.745 C 9.13 g/m*3 19.75 C 0 km/h
103 23-08-2009 00:00:00 20.0375 C 8.31 g/m*3 20.04 C 0 km/h
104 24-08-2009 00:00:00 22.19667 C 9.27 g/m*3 22.2 C 0 km/h
105 25-08-2009 00:00:00 23.11917 C 10.67 g/m*3 23.12 C 0 km/h
106 26-08-2009 00:00:00 21.68417 C 9.77 g/m*3 21.68 C 0 km/h
107 27-08-2009 00:00:00 23.10167 C 10.48 g/m*3 23.1 C 0 km/h
108 28-08-2009 00:00:00 21.60583 C 8.45 g/m*3 21.61 C 0 km/h
109 29-08-2009 00:00:00 16.21167 C 6.62 g/m*3 16.21 C 0 km/h
110 30-08-2009 00:00:00 16.655 C 6.94 g/m*3 16.66 C 0 km/h
111 31-08-2009 00:00:00 19.54667 C 7.6 g/m*3 19.55 C 0 km/h
112 01-09-2009 00:00:00 19.93167 C 10.19 g/m*3 19.93 C 0 km/h
113 02-09-2009 00:00:00 18.765 C 9.38 g/m*3 18.77 C 0 km/h
114 03-09-2009 00:00:00 17.39328 C 8.67 g/m*3 17.39 C 0 km/h
115 04-09-2009 00:00:00 14.56333 C 8.22 g/m*3 14.56 C 0 km/h
116 05-09-2009 00:00:00 15.10833 C 7.6 g/m*3 15.11 C 0 km/h
117 06-09-2009 00:00:00 14.74583 C 8.27 g/m*3 14.75 C 0 km/h
118 07-09-2009 00:00:00 17.63417 C 8.91 g/m*3 17.63 C 0 km/h
119 08-09-2009 00:00:00 19.88167 C 9.54 g/m*3 19.88 C 0 km/h
120 09-09-2009 00:00:00 19.7475 C 9.47 g/m*3 19.75 C 0 km/h
121 10-09-2009 00:00:00 18.43917 C 10.33 g/m*3 18.44 C 0 km/h
122 11-09-2009 00:00:00 17.6725 C 7.37 g/m*3 17.67 C 0 km/h
123 12-09-2009 00:00:00 16.99083 C 7.3 g/m*3 16.99 C 0 km/h
124 13-09-2009 00:00:00 14.23 C 8.62 g/m*3 14.23 C 0 km/h
125 14-09-2009 00:00:00 12.17417 C 10.1 g/m*3 12.17 C 0 km/h
Sensor: Nr:Datum:Temp:Abs-Feuchte:Windchill:Wind:
Aussen-T/F 126 15-09-2009 00:00:00 13.7563 C 10.75 g/m*3 13.76 C 0 km/h
127 16-09-2009 00:00:00 16.725 C 11.49 g/m*3 16.73 C 0 km/h
128 17-09-2009 00:00:00 18.47583 C 9.96 g/m*3 18.48 C 0 km/h
129 18-09-2009 00:00:00 18.26083 C 9.85 g/m*3 18.26 C 0 km/h
130 19-09-2009 00:00:00 20.78583 C 11.08 g/m*3 20.79 C 0 km/h
131 20-09-2009 00:00:00 19.92833 C 11.89 g/m*3 19.93 C 0 km/h
132 21-09-2009 00:00:00 18.85833 C 10.75 g/m*3 18.86 C 0 km/h
133 22-09-2009 00:00:00 17.215 C 9.52 g/m*3 17.22 C 0 km/h
134 23-09-2009 00:00:00 17.4225 C 9.72 g/m*3 17.42 C 0 km/h
135 24-09-2009 00:00:00 17.19 C 10.45 g/m*3 17.19 C 0 km/h
136 25-09-2009 00:00:00 15.16083 C 8.71 g/m*3 15.16 C 0 km/h
137 26-09-2009 00:00:00 14.56333 C 8.19 g/m*3 14.56 C 0 km/h
138 27-09-2009 00:00:00 14.64 C 8.22 g/m*3 14.64 C 0 km/h
139 28-09-2009 00:00:00 14.21583 C 8.47 g/m*3 14.22 C 0 km/h
140 29-09-2009 00:00:00 15.88319 C 8.68 g/m*3 15.88 C 0 km/h
141 30-09-2009 00:00:00 16.535 C 9.98 g/m*3 16.54 C 0 km/h
142 01-10-2009 00:00:00 14.71583 C 8.88 g/m*3 14.72 C 0 km/h
143 02-10-2009 00:00:00 11.32167 C 6.59 g/m*3 11.32 C 0 km/h
144 03-10-2009 00:00:00 11.72333 C 6.76 g/m*3 11.72 C 0 km/h
145 04-10-2009 00:00:00 13.54167 C 7.94 g/m*3 13.54 C 0 km/h
146 05-10-2009 00:00:00 12.4075 C 9.99 g/m*3 12.41 C 0 km/h
147 06-10-2009 00:00:00 16.13417 C 12.08 g/m*3 16.13 C 0 km/h
148 07-10-2009 00:00:00 19.57083 C 12.9 g/m*3 19.57 C 0 km/h
149 08-10-2009 00:00:00 16.41167 C 9.99 g/m*3 16.41 C 0 km/h
150 09-10-2009 00:00:00 11.88417 C 7.56 g/m*3 11.88 C 0 km/h
Sensor: Nr:Datum:Temp:Abs-Feuchte:Windchill:Wind:
Aussen-T/F 151 10-10-2009 00:00:00 13.34667 C 9.66 g/m*3 13.35 C 0 km/h
152 11-10-2009 00:00:00 12.35042 C 8.83 g/m*3 12.35 C 0 km/h
153 12-10-2009 00:00:00 10.9275 C 6.43 g/m*3 10.93 C 0 km/h
154 13-10-2009 00:00:00 9.24333 C 6.35 g/m*3 9.24 C 0 km/h
155 14-10-2009 00:00:00 4.27333 C 4.38 g/m*3 4.27 C 0 km/h
156 15-10-2009 00:00:00 3.45583 C 4.18 g/m*3 3.46 C 0 km/h
157 16-10-2009 00:00:00 6.41083 C 5.8 g/m*3 6.41 C 0 km/h
158 17-10-2009 00:00:00 8.52083 C 5.63 g/m*3 8.52 C 0 km/h
159 18-10-2009 00:00:00 7.3775 C 5.38 g/m*3 7.38 C 0 km/h
160 19-10-2009 00:00:00 4.59 C 4.71 g/m*3 4.59 C 0 km/h
161 20-10-2009 00:00:00 5.17083 C 4.82 g/m*3 5.17 C 0 km/h
162 21-10-2009 00:00:00 8.07333 C 5.02 g/m*3 8.07 C 0 km/h
163 22-10-2009 00:00:00 9.4 C 5.91 g/m*3 9.4 C 0 km/h
164 23-10-2009 00:00:00 8.34 C 7.02 g/m*3 8.34 C 0 km/h
165 24-10-2009 00:00:00 10.5084 C 7.81 g/m*3 10.51 C 0 km/h
166 25-10-2009 00:00:00 12.6096 C 8.4 g/m*3 12.61 C 0 km/h
167 26-10-2009 00:00:00 11.8875 C 7.56 g/m*3 11.89 C 0 km/h
168 27-10-2009 00:00:00 11.82417 C 7.63 g/m*3 11.82 C 0 km/h
169 28-10-2009 00:00:00 8.37917 C 7.06 g/m*3 8.38 C 0 km/h
170 29-10-2009 00:00:00 8.69333 C 7.48 g/m*3 8.69 C 0 km/h
171 30-10-2009 00:00:00 10.54083 C 7.59 g/m*3 10.54 C 0 km/h
172 31-10-2009 00:00:00 7.03083 C 5.82 g/m*3 7.03 C 0 km/h
173 01-11-2009 00:00:00 9.17333 C 6.74 g/m*3 9.17 C 0 km/h
174 02-11-2009 00:00:00 10.32333 C 8.29 g/m*3 10.32 C 0 km/h
175 03-11-2009 00:00:00 8.06167 C 6.19 g/m*3 8.06 C 0 km/h
Sensor: Nr:Datum:Temp:Abs-Feuchte:Windchill:Wind:
Aussen-T/F 176 04-11-2009 00:00:00 8.75 C 7.01 g/m*3 8.75 C 0 km/h
177 05-11-2009 00:00:00 9.29748 C 6.2 g/m*3 9.3 C 0 km/h
178 06-11-2009 00:00:00 9.43333 C 6.28 g/m*3 9.43 C 0 km/h
179 07-11-2009 00:00:00 8.11583 C 5.94 g/m*3 8.12 C 0 km/h
180 08-11-2009 00:00:00 6.9 C 6.33 g/m*3 6.9 C 0 km/h
181 09-11-2009 00:00:00 6.21167 C 6.26 g/m*3 6.21 C 0 km/h
182 10-11-2009 00:00:00 6.03 C 6.79 g/m*3 6.03 C 0 km/h
183 11-11-2009 00:00:00 6.2525 C 6.18 g/m*3 6.25 C 0 km/h
184 12-11-2009 00:00:00 4.66 C 6.06 g/m*3 4.66 C 0 km/h
185 13-11-2009 00:00:00 11.27583 C 8.27 g/m*3 11.28 C 0 km/h
186 14-11-2009 00:00:00 11.7125 C 7.87 g/m*3 11.71 C 0 km/h
187 15-11-2009 00:00:00 11.2125 C 6.89 g/m*3 11.21 C 0 km/h
188 16-11-2009 00:00:00 10.92667 C 8.53 g/m*3 10.93 C 0 km/h
189 17-11-2009 00:00:00 10.88235 C 8.48 g/m*3 10.88 C 0 km/h
190 18-11-2009 00:00:00 10.245 C 6.24 g/m*3 10.25 C 0 km/h
191 19-11-2009 00:00:00 9.77667 C 6.57 g/m*3 9.78 C 0 km/h
192 20-11-2009 00:00:00 7.87917 C 6.83 g/m*3 7.88 C 0 km/h
193 21-11-2009 00:00:00 11.67333 C 7.8 g/m*3 11.67 C 0 km/h
194 22-11-2009 00:00:00 11.84167 C 6.48 g/m*3 11.84 C 0 km/h
195 23-11-2009 00:00:00 10.33417 C 6.93 g/m*3 10.33 C 0 km/h
196 24-11-2009 00:00:00 11.89833 C 7.31 g/m*3 11.9 C 0 km/h
197 25-11-2009 00:00:00 12.0875 C 6.36 g/m*3 12.09 C 0 km/h
198 26-11-2009 00:00:00 9.98917 C 5.73 g/m*3 9.99 C 0 km/h
199 27-11-2009 00:00:00 9.0425 C 5.58 g/m*3 9.04 C 0 km/h
200 28-11-2009 00:00:00 8.79 C 5.95 g/m*3 8.79 C 0 km/h
Sensor: Nr:Datum:Temp:Abs-Feuchte:Windchill:Wind:
Aussen-T/F 201 29-11-2009 00:00:00 9.41597 C 6.1 g/m*3 9.42 C 0 km/h
202 30-11-2009 00:00:00 6.46 C 6.32 g/m*3 6.46 C 0 km/h
203 01-12-2009 00:00:00 5.65583 C 5.93 g/m*3 5.66 C 0 km/h
204 02-12-2009 00:00:00 5.96 C 5.22 g/m*3 5.96 C 0 km/h
205 03-12-2009 00:00:00 8.53667 C 6.07 g/m*3 8.54 C 0 km/h
206 04-12-2009 00:00:00 4.73917 C 4.37 g/m*3 4.74 C 0 km/h
207 05-12-2009 00:00:00 5.3975 C 5.13 g/m*3 5.4 C 0 km/h
208 06-12-2009 00:00:00 9.83 C 7.53 g/m*3 9.83 C 0 km/h
209 07-12-2009 00:00:00 5.59917 C 6.01 g/m*3 5.6 C 0 km/h
210 08-12-2009 00:00:00 6.95833 C 6.27 g/m*3 6.96 C 0 km/h
211 09-12-2009 00:00:00 7.2525 C 6.19 g/m*3 7.25 C 0 km/h
212 10-12-2009 00:00:00 8.78583 C 6.99 g/m*3 8.79 C 0 km/h
213 11-12-2009 00:00:00 6.665 C 6.16 g/m*3 6.67 C 0 km/h
214 12-12-2009 00:00:00 3.47833 C 5.29 g/m*3 3.48 C 0 km/h
215 13-12-2009 00:00:00 1.50924 C 3.54 g/m*3 1.51 C 0 km/h
216 14-12-2009 00:00:00 -0.80667 C 2.67 g/m*3 -0.81 C 0 km/h
217 15-12-2009 00:00:00 -0.50083 C 2.88 g/m*3 -0.5 C 0 km/h
218 16-12-2009 00:00:00 -1.19917 C 2.79 g/m*3 -1.2 C 0 km/h
219 17-12-2009 00:00:00 -4.445 C 2.62 g/m*3 -4.45 C 0 km/h
220 18-12-2009 00:00:00 -5.04417 C 2.34 g/m*3 -5.04 C 0 km/h
221 19-12-2009 00:00:00 -12.79 C 1.12 g/m*3 -12.79 C 0 km/h
222 20-12-2009 00:00:00 -8.03917 C 1.87 g/m*3 -8.04 C 0 km/h
223 21-12-2009 00:00:00 -2.18417 C 3.25 g/m*3 -2.18 C 0 km/h
224 22-12-2009 00:00:00 2.7175 C 5.09 g/m*3 2.72 C 0 km/h
225 23-12-2009 00:00:00 0.49333 C 4.68 g/m*3 0.49 C 0 km/h
Sensor: Nr:Datum:Temp:Abs-Feuchte:Windchill:Wind:
Aussen-T/F 226 24-12-2009 00:00:00 2.31333 C 5.15 g/m*3 2.31 C 0 km/h
227 25-12-2009 00:00:00 4.38824 C 5.08 g/m*3 4.39 C 0 km/h
228 26-12-2009 00:00:00 2.04583 C 4.45 g/m*3 2.05 C 0 km/h
229 27-12-2009 00:00:00 0.5475 C 4.38 g/m*3 0.55 C 0 km/h
230 28-12-2009 00:00:00 3.1425 C 4.49 g/m*3 3.14 C 0 km/h
231 29-12-2009 00:00:00 0.4625 C 4.61 g/m*3 0.46 C 0 km/h
232 30-12-2009 00:00:00 7.05667 C 7.27 g/m*3 7.06 C 0 km/h
233 31-12-2009 00:00:00 5.32667 C 6.59 g/m*3 5.33 C 0 km/h
234 01-01-2010 00:00:00 -0.1725 C 4.38 g/m*3 -0.17 C 0 km/h
235 02-01-2010 00:00:00 -1.51083 C 3.34 g/m*3 -1.51 C 0 km/h
236 03-01-2010 00:00:00 -1.79667 C 3.45 g/m*3 -1.8 C 0 km/h
237 04-01-2010 00:00:00 -5.24083 C 2.41 g/m*3 -5.24 C 0 km/h
238 05-01-2010 00:00:00 -8.00083 C 2.22 g/m*3 -8 C 0 km/h
239 06-01-2010 00:00:00 -6.88917 C 2.25 g/m*3 -6.89 C 0 km/h
240 07-01-2010 00:00:00 -3.75966 C 2.79 g/m*3 -3.76 C 0 km/h
241 08-01-2010 00:00:00 -4.82167 C 2.54 g/m*3 -4.82 C 0 km/h
242 09-01-2010 00:00:00 -2.655 C 3.05 g/m*3 -2.66 C 0 km/h
243 10-01-2010 00:00:00 -1.87083 C 3.27 g/m*3 -1.87 C 0 km/h
244 11-01-2010 00:00:00 -1.42833 C 3.62 g/m*3 -1.43 C 0 km/h
245 12-01-2010 00:00:00 -1.65833 C 3.4 g/m*3 -1.66 C 0 km/h
246 13-01-2010 00:00:00 -2.2325 C 2.99 g/m*3 -2.23 C 0 km/h
247 14-01-2010 00:00:00 0.35417 C 3.98 g/m*3 0.35 C 0 km/h
248 15-01-2010 00:00:00 0.87333 C 4.07 g/m*3 0.87 C 0 km/h
249 16-01-2010 00:00:00 -0.11833 C 3.75 g/m*3 -0.12 C 0 km/h
250 17-01-2010 00:00:00 2.09667 C 5.1 g/m*3 2.1 C 0 km/h
Sensor: Nr:Datum:Temp:Abs-Feuchte:Windchill:Wind:
Aussen-T/F 251 18-01-2010 00:00:00 3.38333 C 5.07 g/m*3 3.38 C 0 km/h
252 19-01-2010 00:00:00 2.24583 C 5.1 g/m*3 2.25 C 0 km/h
253 20-01-2010 00:00:00 1.97417 C 4.66 g/m*3 1.97 C 0 km/h
254 21-01-2010 00:00:00 2.45126 C 4.02 g/m*3 2.45 C 0 km/h
255 22-01-2010 00:00:00 2.93667 C 4.24 g/m*3 2.94 C 0 km/h
256 23-01-2010 00:00:00 -0.41333 C 3.36 g/m*3 -0.41 C 0 km/h
257 24-01-2010 00:00:00 0.27167 C 4.06 g/m*3 0.27 C 0 km/h
258 25-01-2010 00:00:00 0.01667 C 4.19 g/m*3 0.02 C 0 km/h
259 26-01-2010 00:00:00 -3.325 C 2.8 g/m*3 -3.33 C 0 km/h
260 27-01-2010 00:00:00 -5.54083 C 2.18 g/m*3 -5.54 C 0 km/h
261 28-01-2010 00:00:00 1.20667 C 4.04 g/m*3 1.21 C 0 km/h
262 29-01-2010 00:00:00 1.39083 C 4.5 g/m*3 1.39 C 0 km/h
263 30-01-2010 00:00:00 -1.54583 C 3.39 g/m*3 -1.55 C 0 km/h
264 31-01-2010 00:00:00 -1.62333 C 3.2 g/m*3 -1.62 C 0 km/h
265 01-02-2010 00:00:00 0.20167 C 3.69 g/m*3 0.2 C 0 km/h
266 02-02-2010 00:00:00 0.69916 C 4 g/m*3 0.7 C 0 km/h
267 03-02-2010 00:00:00 2.28899 C 5.05 g/m*3 2.29 C 0 km/h
268 04-02-2010 00:00:00 4.17018 C 5.55 g/m*3 4.17 C 0 km/h
269 05-02-2010 00:00:00 3.29649 C 4.9 g/m*3 3.3 C 0 km/h
270 06-02-2010 00:00:00 4.55172 C 5.47 g/m*3 4.55 C 0 km/h
271 07-02-2010 00:00:00 4.17018 C 5.02 g/m*3 4.17 C 0 km/h
272 08-02-2010 00:00:00 -0.75 C 2.85 g/m*3 -0.75 C 0 km/h
273 09-02-2010 00:00:00 -3.74483 C 2.17 g/m*3 -3.74 C 0 km/h
274 10-02-2010 00:00:00 -4.8 C 2.32 g/m*3 -4.8 C 0 km/h
275 11-02-2010 00:00:00 -3.79828 C 2.62 g/m*3 -3.8 C 0 km/h
Sensor: Nr:Datum:Temp:Abs-Feuchte:Windchill:Wind:
Aussen-T/F 276 12-02-2010 00:00:00 -2.14737 C 2.95 g/m*3 -2.15 C 0 km/h
277 13-02-2010 00:00:00 -2.57414 C 2.82 g/m*3 -2.57 C 0 km/h
278 14-02-2010 00:00:00 -2.13621 C 3.1 g/m*3 -2.14 C 0 km/h
279 15-02-2010 00:00:00 -1.12632 C 3.21 g/m*3 -1.13 C 0 km/h
280 16-02-2010 00:00:00 -1.16379 C 3.02 g/m*3 -1.16 C 0 km/h
281 17-02-2010 00:00:00 -1.61754 C 3.18 g/m*3 -1.62 C 0 km/h
282 18-02-2010 00:00:00 3.2569 C 4.56 g/m*3 3.26 C 0 km/h
283 19-02-2010 00:00:00 3.59375 C 4.12 g/m*3 3.59 C 0 km/h
284 20-02-2010 00:00:00 1.69333 C 3.53 g/m*3 1.69 C 0 km/h
285 21-02-2010 00:00:00 2.87833 C 4.25 g/m*3 2.88 C 0 km/h
286 22-02-2010 00:00:00 6.76417 C 5.24 g/m*3 6.76 C 0 km/h
287 23-02-2010 00:00:00 9.7875 C 7.07 g/m*3 9.79 C 0 km/h
288 24-02-2010 00:00:00 9.55 C 6.5 g/m*3 9.55 C 0 km/h
289 25-02-2010 00:00:00 9.58 C 5.92 g/m*3 9.58 C 0 km/h
290 26-02-2010 00:00:00 8.62667 C 5.33 g/m*3 8.63 C 0 km/h
291 27-02-2010 00:00:00 8.4025 C 4.07 g/m*3 8.4 C 0 km/h
292 28-02-2010 00:00:00 8.30667 C 5.5 g/m*3 8.31 C 0 km/h
293 01-03-2010 00:00:00 5.40917 C 3.85 g/m*3 5.41 C 0 km/h
294 02-03-2010 00:00:00 3.135 C 3.87 g/m*3 3.14 C 0 km/h
295 03-03-2010 00:00:00 2.9925 C 3.33 g/m*3 2.99 C 0 km/h
296 04-03-2010 00:00:00 2.47395 C 2.67 g/m*3 2.47 C 0 km/h
297 05-03-2010 00:00:00 0.77667 C 2.41 g/m*3 0.78 C 0 km/h
298 06-03-2010 00:00:00 -0.47083 C 3.38 g/m*3 -0.47 C 0 km/h
299 07-03-2010 00:00:00 -1.6825 C 2.27 g/m*3 -1.68 C 0 km/h
300 08-03-2010 00:00:00 -1.21083 C 1.92 g/m*3 -1.21 C 0 km/h
Sensor: Nr:Datum:Temp:Abs-Feuchte:Windchill:Wind:
Aussen-T/F 301 09-03-2010 00:00:00 -0.87167 C 1.76 g/m*3 -0.87 C 0 km/h
302 10-03-2010 00:00:00 1.41667 C 1.75 g/m*3 1.42 C 0 km/h
303 11-03-2010 00:00:00 0.40167 C 2.56 g/m*3 0.4 C 0 km/h
304 12-03-2010 00:00:00 1.61167 C 3.86 g/m*3 1.61 C 0 km/h
305 13-03-2010 00:00:00 4.36583 C 4.23 g/m*3 4.37 C 0 km/h
306 14-03-2010 00:00:00 5.79833 C 4.06 g/m*3 5.8 C 0 km/h
307 15-03-2010 00:00:00 6.445 C 5.04 g/m*3 6.45 C 0 km/h
308 16-03-2010 00:00:00 6.08067 C 5.63 g/m*3 6.08 C 0 km/h
309 17-03-2010 00:00:00 6.69417 C 4.48 g/m*3 6.69 C 0 km/h
310 18-03-2010 00:00:00 10.12333 C 4.54 g/m*3 10.12 C 0 km/h
311 19-03-2010 00:00:00 15.0225 C 4.66 g/m*3 15.02 C 0 km/h
312 20-03-2010 00:00:00 14.37667 C 8.46 g/m*3 14.38 C 0 km/h
313 21-03-2010 00:00:00 11.23667 C 8.65 g/m*3 11.24 C 0 km/h
314 22-03-2010 00:00:00 9.7575 C 7.03 g/m*3 9.76 C 0 km/h
315 23-03-2010 00:00:00 8.94 C 6.12 g/m*3 8.94 C 0 km/h
316 24-03-2010 00:00:00 11.9975 C 6.24 g/m*3 12 C 0 km/h
317 25-03-2010 00:00:00 14.27083 C 6.52 g/m*3 14.27 C 0 km/h
318 26-03-2010 00:00:00 10.0325 C 7.02 g/m*3 10.03 C 0 km/h
319 27-03-2010 00:00:00 9.34333 C 5.7 g/m*3 9.34 C 0 km/h
320 28-03-2010 00:00:00 9.93478 C 6.19 g/m*3 9.93 C 0 km/h
321 29-03-2010 00:00:00 11.88167 C 8.04 g/m*3 11.88 C 0 km/h
322 30-03-2010 00:00:00 12.70672 C 6.43 g/m*3 12.71 C 0 km/h
323 31-03-2010 00:00:00 8.18667 C 4.45 g/m*3 8.19 C 0 km/h
324 01-04-2010 00:00:00 5.84333 C 3.76 g/m*3 5.84 C 0 km/h
325 02-04-2010 00:00:00 6.48583 C 4.37 g/m*3 6.49 C 0 km/h
Sensor: Nr:Datum:Temp:Abs-Feuchte:Windchill:Wind:
Aussen-T/F 326 03-04-2010 00:00:00 9.73667 C 5.47 g/m*3 9.74 C 0 km/h
327 04-04-2010 00:00:00 8.98833 C 5.25 g/m*3 8.99 C 0 km/h
328 05-04-2010 00:00:00 9.15083 C 4.56 g/m*3 9.15 C 0 km/h
329 06-04-2010 00:00:00 10.38167 C 4.41 g/m*3 10.38 C 0 km/h
330 07-04-2010 00:00:00 13.61167 C 5.07 g/m*3 13.61 C 0 km/h
331 08-04-2010 00:00:00 12.375 C 6.96 g/m*3 12.38 C 0 km/h
332 09-04-2010 00:00:00 11.49917 C 5.91 g/m*3 11.5 C 0 km/h
333 10-04-2010 00:00:00 11.3575 C 4.66 g/m*3 11.36 C 0 km/h
334 11-04-2010 00:00:00 7.86667 C 4.35 g/m*3 7.87 C 0 km/h
335 12-04-2010 00:00:00 7.44958 C 5.35 g/m*3 7.45 C 0 km/h
336 13-04-2010 00:00:00 11.85583 C 6.16 g/m*3 11.86 C 0 km/h
337 14-04-2010 00:00:00 11.76417 C 4.66 g/m*3 11.76 C 0 km/h
338 15-04-2010 00:00:00 11.8575 C 5 g/m*3 11.86 C 0 km/h
339 16-04-2010 00:00:00 9.71583 C 4.32 g/m*3 9.72 C 0 km/h
340 17-04-2010 00:00:00 11.1225 C 4.54 g/m*3 11.12 C 0 km/h
341 18-04-2010 00:00:00 13.27917 C 4.52 g/m*3 13.28 C 0 km/h
342 19-04-2010 00:00:00 11.18333 C 5.12 g/m*3 11.18 C 0 km/h
343 20-04-2010 00:00:00 11.13833 C 5.11 g/m*3 11.14 C 0 km/h
344 21-04-2010 00:00:00 7.34417 C 3.84 g/m*3 7.34 C 0 km/h
345 22-04-2010 00:00:00 8.35333 C 3.82 g/m*3 8.35 C 0 km/h
346 23-04-2010 00:00:00 11.44917 C 4.09 g/m*3 11.45 C 0 km/h
347 24-04-2010 00:00:00 14.91167 C 4.56 g/m*3 14.91 C 0 km/h
348 25-04-2010 00:00:00 17.1075 C 5.25 g/m*3 17.11 C 0 km/h
349 26-04-2010 00:00:00 15.72269 C 7.07 g/m*3 15.72 C 0 km/h
350 27-04-2010 00:00:00 15.50417 C 6.31 g/m*3 15.5 C 0 km/h
Sensor: Nr:Datum:Temp:Abs-Feuchte:Windchill:Wind:
Aussen-T/F 351 28-04-2010 00:00:00 16.8925 C 6.33 g/m*3 16.89 C 0 km/h
352 29-04-2010 00:00:00 19.21417 C 6.68 g/m*3 19.21 C 0 km/h
353 30-04-2010 00:00:00 18.69583 C 7.11 g/m*3 18.7 C 0 km/h
354 01-05-2010 00:00:00 15.09917 C 6.78 g/m*3 15.1 C 0 km/h
355 02-05-2010 00:00:00 13.48583 C 7.64 g/m*3 13.49 C 0 km/h
356 03-05-2010 00:00:00 10.01667 C 6.94 g/m*3 10.02 C 0 km/h
357 04-05-2010 00:00:00 9.78833 C 5.53 g/m*3 9.79 C 0 km/h
358 05-05-2010 00:00:00 10.09083 C 3.78 g/m*3 10.09 C 0 km/h
359 06-05-2010 00:00:00 6.68167 C 6.78 g/m*3 6.68 C 0 km/h
360 07-05-2010 00:00:00 6.49417 C 6.66 g/m*3 6.49 C 0 km/h
361 08-05-2010 00:00:00 11.06218 C 6.38 g/m*3 11.06 C 0 km/h
362 09-05-2010 00:00:00 12.575 C 6.93 g/m*3 12.58 C 0 km/h
363 10-05-2010 00:00:00 11.99917 C 6.67 g/m*3 12 C 0 km/h
364 11-05-2010 00:00:00 11.53167 C 6.84 g/m*3 11.53 C 0 km/h
365 12-05-2010 00:00:00 8.62333 C 6.33 g/m*3 8.62 C 0 km/h

Maximal/Minimal-Werte vom 11.04.2020 - 13.05.2020

Sensor Min Max Avg
Temp
(Aussen-T/F)
-0.1 °C
15-04-2020  06:55:00
26.2 °C
17-04-2020  18:05:00
12.26 °C

Die Daten stammen von einer Davis Vantage Pro 2 Wetter-Station und werden unter Linux mit der Software wview2wettercgi und aufbereitet. Alle Angaben erfolgen ohne Gewähr für ihre Vollständigkeit oder Richtigkeit.
Kontakt: Rainer Krienke krienke@uni-koblenz.de . Meine Webseiten an der Uni Koblenz oder privat.
Version: $Revision: 0.78 $